createdAt,value
2018-04-12T00:01:59.680Z,10.50
2018-04-12T00:04:26.078Z,11.67
2018-04-12T00:06:52.325Z,10.87
2018-04-12T00:09:19.330Z,9.80
2018-04-12T00:11:45.576Z,9.80
2018-04-12T00:14:11.864Z,10.03
2018-04-12T00:16:38.087Z,11.60
2018-04-12T00:19:05.113Z,11.60
2018-04-12T00:21:31.359Z,10.60
2018-04-12T00:23:57.594Z,12.47
2018-04-12T00:26:23.821Z,12.13
2018-04-12T00:28:50.124Z,12.53
2018-04-12T00:31:16.356Z,13.73
2018-04-12T00:33:42.593Z,12.43
2018-04-12T00:36:09.561Z,14.43
2018-04-12T00:38:35.790Z,13.53
2018-04-12T00:41:02.827Z,14.03
2018-04-12T00:43:29.067Z,15.93
2018-04-12T00:45:55.346Z,14.07
2018-04-12T00:48:21.620Z,16.47
2018-04-12T00:50:47.890Z,15.17
2018-04-12T00:53:20.125Z,14.10
2018-04-12T00:55:47.090Z,17.67
2018-04-12T00:58:13.336Z,15.17
2018-04-12T01:00:39.627Z,15.33
2018-04-12T01:03:05.850Z,17.40
2018-04-12T01:05:32.096Z,17.27
2018-04-12T01:07:58.336Z,17.37
2018-04-12T01:10:24.602Z,16.90
2018-04-12T01:12:50.863Z,18.10
2018-04-12T01:15:17.094Z,18.20
2018-04-12T01:17:43.311Z,17.53
2018-04-12T01:20:09.545Z,18.43
2018-04-12T01:22:35.839Z,18.33
2018-04-12T01:25:02.118Z,19.97
2018-04-12T01:27:29.098Z,19.53
2018-04-12T01:29:55.326Z,20.03
2018-04-12T01:32:21.704Z,21.10
2018-04-12T01:34:47.995Z,20.80
2018-04-12T01:37:14.255Z,20.60
2018-04-12T01:39:40.478Z,20.40
2018-04-12T01:42:06.738Z,22.97
2018-04-12T01:44:32.984Z,23.33
2018-04-12T01:46:59.955Z,23.93
2018-04-12T01:49:26.159Z,22.80
2018-04-12T01:51:52.514Z,23.93
2018-04-12T01:54:19.623Z,25.17
2018-04-12T01:56:45.958Z,26.90
2018-04-12T01:59:12.182Z,29.10
2018-04-12T02:01:38.569Z,27.83
2018-04-12T02:04:04.835Z,29.90
2018-04-12T02:06:31.101Z,31.20
2018-04-12T02:08:57.367Z,33.50
2018-04-12T02:11:23.716Z,34.50
2018-04-12T02:13:50.011Z,32.70
2018-04-12T02:16:16.301Z,33.90
2018-04-12T02:18:42.655Z,36.67
2018-04-12T02:21:08.903Z,38.33
2018-04-12T02:23:35.145Z,39.47
2018-04-12T02:26:01.399Z,39.60
2018-04-12T02:28:27.670Z,40.87
2018-04-12T02:30:53.904Z,37.83
2018-04-12T02:33:20.914Z,41.97
2018-04-12T02:35:47.177Z,42.20
2018-04-12T02:38:13.571Z,43.97
2018-04-12T02:40:39.795Z,43.33
2018-04-12T02:43:06.872Z,44.97
2018-04-12T02:45:33.092Z,43.77
2018-04-12T02:48:00.048Z,43.33
2018-04-12T02:50:26.297Z,44.93
2018-04-12T02:52:52.631Z,44.70
2018-04-12T02:55:19.679Z,44.20
2018-04-12T02:57:45.963Z,44.70
2018-04-12T03:00:12.305Z,48.63
2018-04-12T03:02:38.562Z,46.67
2018-04-12T03:05:04.816Z,44.20
2018-04-12T03:07:31.056Z,45.90
2018-04-12T03:09:57.320Z,45.33
2018-04-12T03:14:55.987Z,46.53
2018-04-12T03:17:23.018Z,44.97
2018-04-12T03:19:49.273Z,45.90
2018-04-12T03:22:16.283Z,45.63
2018-04-12T03:24:42.556Z,44.60
2018-04-12T03:27:08.807Z,45.57
2018-04-12T03:29:37.152Z,46.40
2018-04-12T03:32:03.496Z,47.03
2018-04-12T03:34:29.723Z,46.20
2018-04-12T03:36:55.948Z,47.70
2018-04-12T03:39:22.975Z,44.30
2018-04-12T03:41:49.219Z,44.70
2018-04-12T03:44:15.466Z,48.50
2018-04-12T03:46:41.700Z,45.37
2018-04-12T03:49:08.035Z,45.33
2018-04-12T03:51:34.331Z,46.37
2018-04-12T03:54:00.599Z,46.43
2018-04-12T03:56:26.856Z,48.20
2018-04-12T03:58:53.121Z,48.50
2018-04-12T04:01:19.414Z,48.93
2018-04-12T04:03:45.633Z,47.23
2018-04-12T04:06:11.887Z,48.47
2018-04-12T04:08:38.831Z,52.30
2018-04-12T04:11:05.849Z,50.43
2018-04-12T04:13:32.148Z,50.60
2018-04-12T04:16:10.629Z,50.93
2018-04-12T04:18:49.424Z,48.80
2018-04-12T04:21:15.720Z,50.70
2018-04-12T04:23:42.038Z,53.73
2018-04-12T04:26:08.504Z,49.77
2018-04-12T04:28:34.863Z,48.20
2018-04-12T04:31:01.175Z,48.47
2018-04-12T04:33:27.407Z,50.30
2018-04-12T04:35:53.606Z,50.20
2018-04-12T04:38:19.945Z,50.90
2018-04-12T04:40:46.887Z,51.93
2018-04-12T04:43:13.213Z,50.80
2018-04-12T04:45:39.473Z,49.93
2018-04-12T04:48:06.523Z,48.40
2018-04-12T04:50:32.760Z,46.40
2018-04-12T04:52:59.154Z,49.63
2018-04-12T04:55:25.395Z,48.50
2018-04-12T04:57:51.793Z,50.47
2018-04-12T05:00:18.029Z,49.67
2018-04-12T05:02:44.303Z,55.37
2018-04-12T05:05:10.587Z,48.60
2018-04-12T05:07:36.973Z,49.27
2018-04-12T05:10:03.250Z,50.40
2018-04-12T05:12:29.539Z,49.40
2018-04-12T05:14:55.804Z,51.07
2018-04-12T05:17:23.341Z,49.50
2018-04-12T05:22:48.679Z,55.07
2018-04-12T05:25:16.017Z,51.60
2018-04-12T05:27:42.352Z,50.60
2018-04-12T05:30:14.277Z,51.23
2018-04-12T05:32:40.561Z,52.33
2018-04-12T05:35:11.156Z,53.87
2018-04-12T05:37:39.611Z,54.13
2018-04-12T05:40:09.433Z,53.47
2018-04-12T05:42:35.958Z,49.90
2018-04-12T05:45:03.008Z,53.10
2018-04-12T05:47:29.290Z,49.97
2018-04-12T05:49:56.380Z,50.37
2018-04-12T05:52:23.943Z,51.37
2018-04-12T05:54:50.243Z,53.53
2018-04-12T05:57:16.573Z,53.20
2018-04-12T05:59:42.831Z,51.87
2018-04-12T06:02:09.156Z,54.23
2018-04-12T06:04:37.501Z,50.97
2018-04-12T06:07:03.922Z,52.30
2018-04-12T06:09:30.965Z,48.80
2018-04-12T06:11:57.275Z,48.33
2018-04-12T06:14:23.507Z,48.90
2018-04-12T06:16:49.794Z,50.67
2018-04-12T06:19:16.056Z,49.17
2018-04-12T06:21:43.328Z,50.30
2018-04-12T06:24:09.845Z,51.80
2018-04-12T06:26:36.411Z,47.97
2018-04-12T06:29:07.612Z,50.70
2018-04-12T06:31:36.922Z,48.77
2018-04-12T06:34:05.708Z,50.27
2018-04-12T06:36:31.984Z,47.47
2018-04-12T06:39:01.913Z,48.63
2018-04-12T06:41:32.381Z,51.40
2018-04-12T06:44:05.985Z,48.57
2018-04-12T06:46:32.562Z,47.20
2018-04-12T06:49:03.941Z,46.20
2018-04-12T06:51:31.489Z,43.13
2018-04-12T06:54:00.357Z,45.87
2018-04-12T06:56:36.165Z,44.57
2018-04-12T06:59:04.848Z,43.50
2018-04-12T07:01:36.145Z,42.47
2018-04-12T07:04:05.420Z,42.27
2018-04-12T07:06:35.576Z,40.87
2018-04-12T07:09:05.834Z,42.40
2018-04-12T07:11:34.188Z,42.07
2018-04-12T07:14:05.599Z,42.03
2018-04-12T07:16:32.752Z,40.90
2018-04-12T07:19:08.043Z,42.63
2018-04-12T07:21:35.511Z,40.50
2018-04-12T07:24:13.038Z,41.87
2018-04-12T07:26:41.139Z,38.60
2018-04-12T07:29:10.747Z,42.87
2018-04-12T07:31:40.875Z,41.07
2018-04-12T07:34:08.770Z,39.90
2018-04-12T07:36:41.111Z,41.53
2018-04-12T07:39:11.405Z,37.40
2018-04-12T07:41:39.354Z,36.60
2018-04-12T07:44:05.845Z,37.97
2018-04-12T07:46:33.772Z,36.33
2018-04-12T07:49:01.550Z,36.03
2018-04-12T07:51:28.600Z,34.37
2018-04-12T07:53:55.339Z,32.60
2018-04-12T07:56:21.784Z,34.27
2018-04-12T07:58:48.530Z,37.27
2018-04-12T08:01:14.844Z,35.03
2018-04-12T08:03:41.234Z,34.77
2018-04-12T08:06:07.575Z,33.80
2018-04-12T08:08:34.102Z,30.73
2018-04-12T08:11:01.212Z,28.80
2018-04-12T08:13:27.952Z,29.23
2018-04-12T08:15:55.061Z,24.30
2018-04-12T08:18:21.835Z,20.83
2018-04-12T08:20:49.261Z,19.87
2018-04-12T08:23:15.593Z,17.73
2018-04-12T08:25:41.986Z,18.83
2018-04-12T08:28:08.349Z,20.17
2018-04-12T08:30:34.587Z,18.33
2018-04-12T08:33:00.917Z,13.43
2018-04-12T08:35:27.273Z,11.70
2018-04-12T08:37:53.623Z,11.10
2018-04-12T08:40:20.077Z,14.40
2018-04-12T08:42:46.332Z,15.90
2018-04-12T08:45:12.779Z,9.60
2018-04-12T08:47:39.593Z,8.10
2018-04-12T08:50:11.593Z,6.27
2018-04-12T08:52:40.089Z,6.73
2018-04-12T08:55:08.279Z,5.30
2018-04-12T08:57:42.215Z,5.50
2018-04-12T09:03:13.148Z,6.10
2018-04-12T09:05:42.532Z,4.90
2018-04-12T09:08:13.893Z,4.73
2018-04-12T09:16:46.750Z,3.30
2018-04-12T09:19:13.124Z,3.50
2018-04-12T09:21:39.364Z,3.67
2018-04-12T09:24:05.701Z,4.13
2018-04-12T09:26:32.198Z,4.30
2018-04-12T09:28:58.458Z,4.57
2018-04-12T09:31:24.965Z,3.77
2018-04-12T09:33:51.387Z,3.63
2018-04-12T09:36:18.134Z,3.40
2018-04-12T09:38:44.419Z,3.63
2018-04-12T09:41:10.981Z,3.30
2018-04-12T09:43:37.275Z,3.27
2018-04-12T09:46:04.087Z,3.93
2018-04-12T09:48:30.535Z,3.30
2018-04-12T09:50:58.051Z,3.30
2018-04-12T09:53:24.578Z,3.23
2018-04-12T09:55:51.416Z,3.40
2018-04-12T09:58:18.872Z,3.70
2018-04-12T10:00:52.741Z,3.87
2018-04-12T10:05:58.997Z,3.70
2018-04-12T10:08:42.209Z,3.93
2018-04-12T10:11:09.809Z,3.77
2018-04-12T10:13:39.141Z,3.17
2018-04-12T10:16:05.987Z,3.63
2018-04-12T10:18:53.897Z,3.80
2018-04-12T10:21:27.430Z,4.27
2018-04-12T10:23:57.341Z,3.80
2018-04-12T10:26:23.626Z,4.67
2018-04-12T10:28:49.929Z,3.87
2018-04-12T10:31:17.019Z,4.10
2018-04-12T10:36:27.236Z,3.97
2018-04-12T10:38:54.978Z,3.87
2018-04-12T10:41:21.347Z,3.77
2018-04-12T10:43:49.150Z,4.37
2018-04-12T10:46:16.021Z,4.20
2018-04-12T10:48:59.954Z,4.00
2018-04-12T10:51:26.974Z,4.23
2018-04-12T10:53:53.427Z,4.23
2018-04-12T10:56:19.911Z,4.17
2018-04-12T10:58:46.241Z,3.93
2018-04-12T11:01:12.581Z,4.40
2018-04-12T11:03:38.968Z,4.00
2018-04-12T11:06:10.214Z,3.63
2018-04-12T11:08:36.475Z,3.20
2018-04-12T11:11:02.959Z,4.23
2018-04-12T11:13:29.314Z,4.87
2018-04-12T11:15:55.680Z,4.47
2018-04-12T11:18:22.524Z,4.60
2018-04-12T11:20:49.101Z,3.70
2018-04-12T11:23:16.769Z,4.00
2018-04-12T11:25:43.876Z,4.30
2018-04-12T11:28:10.197Z,4.73
2018-04-12T11:30:36.466Z,4.83
2018-04-12T11:33:04.115Z,5.40
2018-04-12T11:35:30.411Z,4.67
2018-04-12T11:38:08.026Z,5.20
2018-04-12T11:40:34.405Z,5.37
2018-04-12T11:43:00.707Z,5.80
2018-04-12T11:45:27.028Z,5.10
2018-04-12T11:47:53.279Z,6.13
2018-04-12T11:50:19.570Z,6.30
2018-04-12T11:52:45.983Z,8.30
2018-04-12T11:55:12.351Z,7.20
2018-04-12T11:57:38.623Z,8.10
2018-04-12T12:00:05.174Z,7.30
2018-04-12T12:02:31.784Z,7.87
2018-04-12T12:04:58.851Z,8.90
2018-04-12T12:07:25.360Z,8.60
2018-04-12T12:09:52.173Z,7.70
2018-04-12T12:12:18.582Z,7.10
2018-04-12T12:14:44.991Z,7.50
2018-04-12T12:17:12.016Z,8.10
2018-04-12T12:19:38.295Z,7.67
2018-04-12T12:22:04.724Z,8.27
2018-04-12T12:24:31.722Z,6.90
2018-04-12T12:26:59.052Z,7.70
2018-04-12T12:29:26.264Z,7.63
2018-04-12T12:31:53.322Z,8.03
2018-04-12T12:34:19.522Z,7.60
2018-04-12T12:36:46.497Z,8.80
2018-04-12T12:39:14.550Z,9.47
2018-04-12T12:41:41.727Z,8.70
2018-04-12T12:44:08.752Z,8.97
2018-04-12T12:46:38.207Z,7.73
2018-04-12T12:49:04.808Z,8.40
2018-04-12T12:51:31.715Z,9.60
2018-04-12T12:53:58.141Z,8.70
2018-04-12T12:56:25.635Z,9.77
2018-04-12T12:58:52.318Z,10.00
2018-04-12T13:01:19.010Z,8.73
2018-04-12T13:03:45.421Z,9.10
2018-04-12T13:06:12.207Z,7.17
2018-04-12T13:08:38.609Z,7.67
2018-04-12T13:11:06.271Z,9.33
2018-04-12T13:13:33.300Z,9.90
2018-04-12T13:16:00.606Z,8.93
2018-04-12T13:18:27.973Z,9.70
2018-04-12T13:20:54.488Z,10.33
2018-04-12T13:23:24.827Z,9.60
2018-04-12T13:25:51.269Z,10.03
2018-04-12T13:28:17.912Z,11.47
2018-04-12T13:30:44.333Z,10.93
2018-04-12T13:33:10.690Z,11.03
2018-04-12T13:35:39.619Z,11.00
2018-04-12T13:38:06.182Z,12.33
2018-04-12T13:40:33.102Z,9.73
2018-04-12T13:42:59.579Z,11.53
2018-04-12T13:45:27.915Z,10.43
2018-04-12T13:47:56.334Z,10.60
2018-04-12T13:50:22.777Z,10.23
2018-04-12T13:52:49.174Z,10.67
2018-04-12T13:55:15.608Z,9.70
2018-04-12T13:57:41.919Z,10.60
2018-04-12T14:00:08.420Z,9.60
2018-04-12T14:02:34.840Z,9.60
2018-04-12T14:05:01.202Z,8.20
2018-04-12T14:07:27.914Z,7.90
2018-04-12T14:09:54.364Z,6.70
2018-04-12T14:12:20.687Z,6.47
2018-04-12T14:14:47.256Z,5.23
2018-04-12T14:17:14.275Z,5.87
2018-04-12T14:19:41.944Z,4.60
2018-04-12T14:22:08.525Z,5.20
2018-04-12T14:24:34.946Z,4.80
2018-04-12T14:27:01.331Z,4.20
2018-04-12T14:29:27.723Z,4.10
2018-04-12T14:31:54.006Z,4.47
2018-04-12T14:34:20.828Z,4.50
2018-04-12T14:36:48.134Z,4.40
2018-04-12T14:39:15.176Z,3.83
2018-04-12T14:41:41.729Z,4.27
2018-04-12T14:44:08.093Z,3.77
2018-04-12T14:46:34.427Z,4.10
2018-04-12T14:49:00.750Z,3.83
2018-04-12T14:51:27.165Z,4.10
2018-04-12T14:53:54.872Z,3.97
2018-04-12T14:56:22.307Z,4.07
2018-04-12T14:58:50.421Z,4.23
2018-04-12T15:01:16.897Z,4.10
2018-04-12T15:03:43.245Z,3.30
2018-04-12T15:06:09.587Z,3.93
2018-04-12T15:08:35.874Z,4.30
2018-04-12T15:11:03.177Z,3.60
2018-04-12T15:16:04.224Z,4.80
2018-04-12T15:18:30.700Z,6.30
2018-04-12T15:20:59.801Z,4.93
2018-04-12T15:23:29.292Z,4.60
2018-04-12T15:26:01.351Z,5.30
2018-04-12T15:28:35.559Z,5.50
2018-04-12T15:31:05.835Z,4.97
2018-04-12T15:33:32.146Z,4.37
2018-04-12T15:35:58.771Z,4.70
2018-04-12T15:38:25.366Z,4.10
2018-04-12T15:40:51.735Z,4.57
2018-04-12T15:43:18.051Z,5.23
2018-04-12T15:45:44.438Z,4.13
2018-04-12T15:48:11.909Z,4.10
2018-04-12T15:50:38.604Z,4.20
2018-04-12T15:53:05.015Z,4.20
2018-04-12T15:55:31.389Z,4.40
2018-04-12T15:57:57.669Z,3.90
2018-04-12T16:00:24.386Z,3.73
2018-04-12T16:02:50.743Z,3.97
2018-04-12T16:05:17.036Z,4.30
2018-04-12T16:07:43.312Z,4.10
2018-04-12T16:10:10.292Z,4.47
2018-04-12T16:12:37.530Z,4.30
2018-04-12T16:15:03.948Z,4.33
2018-04-12T16:17:30.219Z,4.47
2018-04-12T16:19:56.574Z,4.10
2018-04-12T16:22:23.676Z,4.60
2018-04-12T16:24:51.407Z,5.33
2018-04-12T16:27:17.893Z,4.57
2018-04-12T16:29:46.256Z,5.90
2018-04-12T16:32:12.637Z,4.60
2018-04-12T16:34:40.616Z,11.17
2018-04-12T16:37:09.448Z,4.60
2018-04-12T16:39:35.823Z,13.47
2018-04-12T16:45:04.718Z,5.13
2018-04-12T16:47:31.219Z,5.13
2018-04-12T16:49:57.530Z,5.77
2018-04-12T16:52:24.398Z,5.60
2018-04-12T16:54:53.533Z,6.47
2018-04-12T16:57:40.323Z,10.17
2018-04-12T17:00:06.681Z,11.67
2018-04-12T17:02:33.796Z,15.73
2018-04-12T17:05:00.088Z,9.20
2018-04-12T17:07:26.544Z,46.13
2018-04-12T17:09:52.888Z,82.70
2018-04-12T17:12:22.636Z,7.43
2018-04-12T17:14:49.140Z,14.53
2018-04-12T17:17:15.485Z,13.17
2018-04-12T17:19:43.130Z,5.83
2018-04-12T17:22:09.735Z,6.50
2018-04-12T17:24:39.336Z,6.37
2018-04-12T17:27:06.384Z,21.23
2018-04-12T17:29:33.428Z,7.07
2018-04-12T17:32:03.090Z,8.87
2018-04-12T17:34:35.355Z,17.03
2018-04-12T17:37:03.751Z,5.87
2018-04-12T17:39:30.200Z,21.53
2018-04-12T17:44:28.934Z,10.73
2018-04-12T17:46:55.507Z,17.10
2018-04-12T17:49:32.136Z,7.87
2018-04-12T17:51:58.652Z,8.97
2018-04-12T17:54:26.271Z,8.20
2018-04-12T17:56:53.093Z,8.97
2018-04-12T18:01:55.421Z,11.70
2018-04-12T18:04:23.082Z,8.10
2018-04-12T18:06:50.455Z,9.67
2018-04-12T18:09:19.379Z,22.73
2018-04-12T18:11:48.325Z,12.00
2018-04-12T18:14:19.584Z,15.87
2018-04-12T18:16:47.527Z,20.60
2018-04-12T18:19:14.141Z,11.20
2018-04-12T18:21:40.570Z,8.37
2018-04-12T18:24:07.799Z,7.60
2018-04-12T18:26:35.363Z,21.53
2018-04-12T18:29:07.443Z,6.97
2018-04-12T18:31:51.465Z,20.37
2018-04-12T18:34:18.654Z,6.37
2018-04-12T18:36:44.935Z,5.97
2018-04-12T18:39:11.346Z,5.53
2018-04-12T18:41:37.663Z,5.60
2018-04-12T18:44:03.897Z,12.70
2018-04-12T18:46:31.183Z,11.43
2018-04-12T18:48:57.452Z,6.53
2018-04-12T18:51:23.779Z,8.80
2018-04-12T18:53:50.106Z,7.80
2018-04-12T18:56:16.923Z,7.40
2018-04-12T18:58:43.265Z,9.50
2018-04-12T19:01:09.587Z,9.17
2018-04-12T19:03:36.025Z,7.23
2018-04-12T19:06:06.499Z,7.60
2018-04-12T19:08:33.484Z,5.70
2018-04-12T19:11:05.243Z,5.90
2018-04-12T19:16:37.224Z,19.60
2018-04-12T19:19:03.781Z,7.23
2018-04-12T19:21:30.055Z,7.50
2018-04-12T19:23:56.325Z,6.87
2018-04-12T19:26:22.687Z,8.80
2018-04-12T19:28:48.905Z,8.53
2018-04-12T19:31:15.385Z,7.90
2018-04-12T19:33:41.830Z,7.10
2018-04-12T19:36:08.383Z,7.47
2018-04-12T19:38:34.686Z,6.23
2018-04-12T19:41:01.768Z,7.90
2018-04-12T19:43:28.022Z,33.20
2018-04-12T19:45:54.451Z,7.27
2018-04-12T19:48:20.672Z,7.30
2018-04-12T19:50:46.886Z,6.73
2018-04-12T19:53:13.143Z,7.67
2018-04-12T19:55:40.912Z,7.90
2018-04-12T19:58:07.818Z,8.37
2018-04-12T20:00:34.558Z,7.57
2018-04-12T20:03:02.633Z,6.90
2018-04-12T20:05:29.073Z,8.40
2018-04-12T20:08:08.000Z,7.53
2018-04-12T20:10:35.516Z,7.80
2018-04-12T20:13:22.781Z,9.00
2018-04-12T20:15:50.134Z,8.70
2018-04-12T20:18:21.856Z,7.60
2018-04-12T20:21:05.502Z,8.43
2018-04-12T20:23:38.580Z,8.30
2018-04-12T20:44:38.894Z,9.80
2018-04-12T20:50:08.606Z,9.43
2018-04-12T20:52:35.300Z,8.70
2018-04-12T20:55:01.929Z,8.90
2018-04-12T20:57:31.085Z,10.07
2018-04-12T20:59:58.565Z,9.50
2018-04-12T21:02:36.040Z,10.20
2018-04-12T21:05:06.188Z,11.03
2018-04-12T21:10:35.905Z,10.30
2018-04-12T21:13:05.980Z,10.77
2018-04-12T21:15:38.386Z,10.23
2018-04-12T21:18:06.626Z,11.27
2018-04-12T21:23:36.192Z,11.73
2018-04-12T21:26:05.743Z,10.80
2018-04-12T21:28:36.078Z,11.10
2018-04-12T21:31:08.433Z,11.47
2018-04-12T21:33:35.989Z,9.73
2018-04-12T21:36:08.331Z,10.50
2018-04-12T21:38:34.738Z,10.60
2018-04-12T21:41:02.150Z,10.23
2018-04-12T21:43:36.278Z,9.53
2018-04-12T21:46:06.693Z,10.37
2018-04-12T21:48:46.975Z,10.00
2018-04-12T21:51:13.328Z,10.03
2018-04-12T21:53:39.666Z,200.03
2018-04-12T21:56:05.931Z,11.93
2018-04-12T21:58:32.187Z,13.73
2018-04-12T22:00:58.383Z,14.33
2018-04-12T22:03:24.642Z,11.10
2018-04-12T22:05:50.856Z,24.10
2018-04-12T22:08:18.091Z,9.90
2018-04-12T22:10:47.984Z,11.57
2018-04-12T22:13:15.293Z,11.27
2018-04-12T22:15:41.573Z,11.40
2018-04-12T22:18:07.957Z,10.10
2018-04-12T22:20:34.313Z,11.13
2018-04-12T22:23:00.638Z,11.00
2018-04-12T22:25:26.998Z,11.23
2018-04-12T22:27:54.695Z,10.60
2018-04-12T22:30:23.034Z,9.90
2018-04-12T22:32:49.763Z,10.97
2018-04-12T22:35:16.590Z,10.60
2018-04-12T22:37:43.015Z,10.40
2018-04-12T22:40:10.027Z,11.40
2018-04-12T22:42:37.584Z,10.97
2018-04-12T22:45:06.181Z,11.50
2018-04-12T22:47:36.125Z,12.00
2018-04-12T22:50:05.673Z,11.70
2018-04-12T22:52:36.448Z,10.67
2018-04-12T22:55:05.891Z,10.70
2018-04-12T22:57:36.041Z,10.40
2018-04-12T23:00:05.632Z,9.93
2018-04-12T23:02:35.761Z,11.33
2018-04-12T23:05:05.948Z,11.83
2018-04-12T23:07:37.233Z,11.13
2018-04-12T23:10:05.568Z,10.40
2018-04-12T23:12:31.814Z,11.20
2018-04-12T23:17:37.077Z,11.70
2018-04-12T23:20:07.333Z,11.07
2018-04-12T23:22:36.281Z,10.97
2018-04-12T23:25:02.549Z,11.30
2018-04-12T23:27:36.164Z,11.43
2018-04-12T23:30:11.604Z,10.80
2018-04-12T23:32:38.252Z,10.23
2018-04-12T23:35:04.775Z,10.20
2018-04-12T23:37:36.343Z,10.03
2018-04-12T23:40:07.217Z,11.10
2018-04-12T23:42:35.793Z,10.37
2018-04-12T23:45:08.517Z,10.37
2018-04-12T23:47:36.280Z,11.07
2018-04-12T23:50:06.628Z,10.27
2018-04-12T23:52:36.954Z,10.20
2018-04-12T23:55:06.185Z,9.90
2018-04-12T23:57:35.689Z,10.57
